Time;durP1;ratioP1;P1;durP2;ratioP2;P2;SDS_P1;SDS_P2;PMS_P1;PMS_P2;Temp;Humidity;BMP_temperature;BMP_pressure;BME280_temperature;BME280_humidity;BME280_pressure;Samples;Min_cycle;Max_cycle;Signal;HPM_P1;HPM_P2
2022/05/21 00:00:14;;;;;;;5.10;2.75;;;;;;;18.29;60.06;96458.50;5020279;28;20045;-60
2022/05/21 00:02:40;;;;;;;6.07;2.95;;;;;;;18.22;61.18;96457.53;5024452;28;20025;-60
2022/05/21 00:05:06;;;;;;;6.32;2.78;;;;;;;18.12;61.74;96449.75;5016846;28;20030;-60
2022/05/21 00:07:31;;;;;;;3.53;2.60;;;;;;;18.04;61.63;96454.09;5020722;28;20030;-60
2022/05/21 00:09:57;;;;;;;5.97;2.35;;;;;;;17.91;63.42;96459.09;5023899;28;20400;-60
2022/05/21 00:12:22;;;;;;;5.38;2.88;;;;;;;17.79;63.15;96460.41;5017576;28;20124;-60
2022/05/21 00:14:48;;;;;;;4.03;2.58;;;;;;;17.73;63.33;96457.44;5018275;28;20045;-60
2022/05/21 00:17:13;;;;;;;3.55;2.40;;;;;;;17.69;63.49;96455.31;5017026;28;20026;-60
2022/05/21 00:19:38;;;;;;;3.55;2.88;;;;;;;17.62;63.20;96455.13;5024363;28;20100;-60
2022/05/21 00:22:04;;;;;;;4.75;2.65;;;;;;;17.64;63.58;96462.94;5022423;28;20029;-60
2022/05/21 00:24:29;;;;;;;3.72;3.20;;;;;;;17.58;64.35;96459.13;5025501;28;20543;-60
2022/05/21 00:26:55;;;;;;;8.05;4.10;;;;;;;17.56;63.99;96461.09;5025071;28;20152;-60
2022/05/21 00:29:20;;;;;;;6.80;3.85;;;;;;;17.52;64.61;96463.28;5017193;28;20075;-60
2022/05/21 00:31:47;;;;;;;4.40;3.00;;;;;;;17.46;64.84;96464.78;5019948;28;20508;-60
2022/05/21 00:34:12;;;;;;;8.98;3.15;;;;;;;17.50;65.18;96461.78;5023622;28;20171;-60
2022/05/21 00:36:38;;;;;;;4.13;2.60;;;;;;;17.47;65.77;96457.66;5022632;28;20116;-60
2022/05/21 00:39:03;;;;;;;6.03;2.80;;;;;;;17.43;65.31;96457.13;5026217;28;20084;-60
2022/05/21 00:41:31;;;;;;;4.88;2.90;;;;;;;17.43;66.14;96456.28;5022621;28;20072;-60
2022/05/21 00:44:00;;;;;;;9.90;2.90;;;;;;;17.45;66.16;96459.63;5018967;28;20140;-60
2022/05/21 00:46:29;;;;;;;4.75;2.58;;;;;;;17.41;65.42;96456.47;5021564;28;20034;-60
2022/05/21 00:49:06;;;;;;;4.75;2.67;;;;;;;17.39;65.33;96453.16;5021451;28;20041;-60
2022/05/21 00:51:37;;;;;;;5.18;2.70;;;;;;;17.35;65.20;96465.09;5019091;28;20037;-60
2022/05/21 00:54:04;;;;;;;3.78;2.75;;;;;;;17.33;66.18;96451.13;5023663;28;20410;-60
2022/05/21 00:56:33;;;;;;;4.05;2.30;;;;;;;17.30;66.17;96462.09;5020497;28;20120;-60
2022/05/21 01:01:50;;;;;;;5.30;2.90;;;;;;;17.25;65.84;96461.78;5020895;28;20095;-60
2022/05/21 01:04:15;;;;;;;3.17;2.58;;;;;;;17.20;66.23;96453.47;5017357;28;20392;-60
2022/05/21 01:06:41;;;;;;;4.97;3.90;;;;;;;17.12;66.44;96457.75;5021855;28;20022;-59
2022/05/21 01:09:07;;;;;;;3.85;3.53;;;;;;;17.08;65.90;96445.78;5021186;28;20033;-60
2022/05/21 01:11:34;;;;;;;3.55;2.80;;;;;;;17.08;65.64;96447.63;5020949;28;20673;-60
2022/05/21 01:14:02;;;;;;;4.00;2.45;;;;;;;17.10;65.26;96454.44;5016282;28;20532;-60
2022/05/21 01:16:29;;;;;;;2.92;2.70;;;;;;;17.07;66.36;96446.78;5023272;28;20144;-60
2022/05/21 01:18:56;;;;;;;4.88;2.78;;;;;;;17.02;66.58;96447.31;5019623;28;20033;-60
2022/05/21 01:21:22;;;;;;;8.32;3.20;;;;;;;16.99;67.08;96450.25;5017746;28;20026;-60
2022/05/21 01:23:47;;;;;;;5.18;2.75;;;;;;;17.02;65.89;96443.78;5020290;28;20039;-60
2022/05/21 01:26:17;;;;;;;5.53;3.08;;;;;;;16.95;67.10;96445.44;5025897;28;20488;-60
2022/05/21 01:28:42;;;;;;;4.70;2.90;;;;;;;16.90;67.41;96445.91;5019753;28;20651;-60
2022/05/21 01:31:08;;;;;;;4.28;2.95;;;;;;;16.77;67.89;96441.06;5025542;28;20038;-60
2022/05/21 01:33:38;;;;;;;9.88;2.67;;;;;;;16.71;66.73;96444.38;5021161;28;20117;-60
2022/05/21 01:36:06;;;;;;;5.03;3.20;;;;;;;16.69;66.60;96439.22;5015991;28;20104;-59
2022/05/21 01:38:32;;;;;;;7.00;3.88;;;;;;;16.63;67.28;96434.56;5017485;28;20104;-59
2022/05/21 01:40:58;;;;;;;5.60;3.47;;;;;;;16.64;67.23;96436.22;5024045;28;20046;-59
2022/05/21 01:46:09;;;;;;;4.63;3.15;;;;;;;16.66;66.18;96436.03;5026886;28;20128;-60
2022/05/21 01:48:35;;;;;;;5.80;3.08;;;;;;;16.65;66.63;96431.72;5025649;28;20112;-60
2022/05/21 01:51:01;;;;;;;7.53;2.97;;;;;;;16.57;67.22;96425.38;5020593;28;20550;-60
2022/05/21 01:53:28;;;;;;;5.18;2.63;;;;;;;16.51;66.81;96431.34;5015123;28;20029;-59
2022/05/21 01:55:55;;;;;;;2.80;2.53;;;;;;;16.47;68.11;96430.84;5018528;28;20064;-60
2022/05/21 01:58:21;;;;;;;4.97;2.90;;;;;;;16.45;67.71;96431.97;5022179;28;20022;-59
2022/05/21 02:00:46;;;;;;;15.77;3.20;;;;;;;16.41;68.10;96430.63;5022156;28;20045;-60
2022/05/21 02:03:13;;;;;;;6.22;2.80;;;;;;;16.36;67.61;96432.97;5020168;28;20076;-60
2022/05/21 02:05:39;;;;;;;4.10;2.55;;;;;;;16.29;67.26;96424.78;5022808;28;20040;-60
2022/05/21 02:08:06;;;;;;;8.35;3.15;;;;;;;16.19;70.23;96432.88;5021337;28;20029;-60
2022/05/21 02:10:32;;;;;;;5.32;3.38;;;;;;;16.09;69.46;96432.19;5016973;28;20393;-59
2022/05/21 02:12:58;;;;;;;5.85;2.92;;;;;;;16.06;69.08;96432.50;5016275;28;20033;-60
2022/05/21 02:15:23;;;;;;;3.38;3.00;;;;;;;16.03;69.71;96434.47;5021706;28;20025;-60
2022/05/21 02:17:49;;;;;;;4.22;2.85;;;;;;;16.00;70.13;96429.47;5025088;28;20087;-60
2022/05/21 02:20:14;;;;;;;2.95;2.75;;;;;;;15.89;71.83;96422.59;5017283;28;20531;-60
2022/05/21 02:22:39;;;;;;;5.28;2.60;;;;;;;15.86;71.86;96427.38;5014283;28;20026;-59
2022/05/21 02:25:07;;;;;;;2.83;2.67;;;;;;;15.90;71.19;96423.44;5020296;28;20057;-59
2022/05/21 02:27:33;;;;;;;3.83;2.88;;;;;;;15.87;71.29;96426.38;5021655;28;20021;-60
2022/05/21 02:29:59;;;;;;;6.88;3.25;;;;;;;15.83;71.55;96422.38;5017932;28;20025;-59
2022/05/21 02:32:24;;;;;;;4.07;3.20;;;;;;;15.84;71.03;96416.09;5016710;28;20087;-60
2022/05/21 02:34:49;;;;;;;7.93;3.00;;;;;;;15.82;70.97;96416.22;5024042;28;20029;-59
2022/05/21 02:39:59;;;;;;;5.05;3.05;;;;;;;15.79;71.29;96423.66;5018655;28;20497;-60
2022/05/21 02:42:43;;;;;;;4.55;3.05;;;;;;;15.76;71.44;96422.19;5016251;28;20026;-59
2022/05/21 02:45:10;;;;;;;2.90;2.60;;;;;;;15.74;71.01;96414.34;5022459;28;20026;-60
2022/05/21 02:47:35;;;;;;;4.68;3.10;;;;;;;15.70;71.23;96406.88;5022153;28;20021;-60
2022/05/21 02:50:02;;;;;;;5.18;3.08;;;;;;;15.68;71.42;96417.66;5019755;28;20030;-60
2022/05/21 02:52:27;;;;;;;4.93;2.90;;;;;;;15.68;71.46;96404.38;5020258;28;20500;-60
2022/05/21 02:54:52;;;;;;;3.17;2.83;;;;;;;15.64;71.20;96405.69;5021727;28;20034;-60
2022/05/21 02:57:18;;;;;;;3.25;2.78;;;;;;;15.65;71.27;96399.38;5018622;28;20490;-60
2022/05/21 02:59:43;;;;;;;4.90;2.60;;;;;;;15.67;71.14;96396.56;5024032;28;20117;-61
2022/05/21 03:02:09;;;;;;;6.45;3.05;;;;;;;15.60;71.41;96399.84;5014135;28;20421;-60
2022/05/21 03:04:35;;;;;;;4.53;3.30;;;;;;;15.54;71.78;96397.81;5025777;28;20032;-60
2022/05/21 03:07:00;;;;;;;8.15;2.97;;;;;;;15.55;71.36;96396.84;5023126;28;20440;-61
2022/05/21 03:12:11;;;;;;;3.30;3.00;;;;;;;15.57;70.82;96392.19;5012334;28;20084;-60
2022/05/21 03:14:37;;;;;;;3.03;2.70;;;;;;;15.61;70.68;96398.03;5014672;28;20501;-60
2022/05/21 03:17:03;;;;;;;3.88;2.92;;;;;;;15.57;71.27;96401.97;5022315;28;20635;-60
2022/05/21 03:19:31;;;;;;;4.00;2.88;;;;;;;15.60;70.85;96393.72;5017033;28;20079;-60
2022/05/21 03:21:57;;;;;;;5.43;3.15;;;;;;;15.52;70.81;96399.81;5015077;28;20109;-60
2022/05/21 03:24:23;;;;;;;3.05;2.85;;;;;;;15.51;70.98;96411.41;5023616;28;20056;-61
2022/05/21 03:26:48;;;;;;;5.25;2.90;;;;;;;15.56;70.63;96400.31;5022216;28;20037;-60
2022/05/21 03:29:13;;;;;;;5.82;3.13;;;;;;;15.51;71.54;96411.41;5022802;28;20027;-60
2022/05/21 03:31:39;;;;;;;3.05;2.83;;;;;;;15.41;72.35;96414.16;5020417;28;20026;-60
2022/05/21 03:34:04;;;;;;;3.67;3.08;;;;;;;15.41;72.35;96413.31;5015795;28;20026;-60
2022/05/21 03:36:30;;;;;;;3.65;3.00;;;;;;;15.38;72.00;96403.84;5017477;28;20022;-60
2022/05/21 03:38:58;;;;;;;3.53;2.90;;;;;;;15.37;71.74;96409.31;5030820;28;20022;-60
2022/05/21 03:41:25;;;;;;;3.22;2.92;;;;;;;15.38;71.77;96397.69;5023909;28;20053;-60
2022/05/21 03:43:51;;;;;;;6.20;2.97;;;;;;;15.30;72.56;96401.97;5023097;28;20440;-60
2022/05/21 03:46:16;;;;;;;3.50;3.20;;;;;;;15.30;71.90;96403.78;5016822;28;20034;-60
2022/05/21 03:48:42;;;;;;;4.18;3.03;;;;;;;15.24;72.50;96397.25;5025441;28;20033;-61
2022/05/21 03:51:07;;;;;;;5.85;3.25;;;;;;;15.14;72.90;96407.13;5023263;28;20030;-60
2022/05/21 03:53:33;;;;;;;5.00;3.15;;;;;;;15.08;73.67;96405.09;5017145;28;20401;-60
2022/05/21 03:55:59;;;;;;;5.93;3.22;;;;;;;15.07;73.85;96401.59;5018392;28;20385;-60
2022/05/21 03:58:25;;;;;;;5.78;3.17;;;;;;;15.02;73.39;96402.06;5024826;28;20025;-60
2022/05/21 04:00:50;;;;;;;3.75;3.17;;;;;;;14.95;74.21;96400.19;5021730;28;20566;-60
2022/05/21 04:03:16;;;;;;;3.45;3.15;;;;;;;14.96;73.63;96407.16;5021730;28;20072;-60
2022/05/21 04:05:42;;;;;;;6.45;3.22;;;;;;;15.00;72.88;96405.84;5026716;28;20507;-61
2022/05/21 04:08:08;;;;;;;3.88;3.13;;;;;;;14.98;72.97;96403.34;5024404;28;20030;-60
2022/05/21 04:10:33;;;;;;;4.20;2.80;;;;;;;14.93;73.11;96410.13;5015422;28;20033;-60
2022/05/21 04:12:59;;;;;;;4.07;3.67;;;;;;;14.89;74.05;96407.75;5016225;28;20037;-60
2022/05/21 04:15:25;;;;;;;9.68;3.60;;;;;;;14.91;73.59;96410.25;5026704;28;20034;-60
2022/05/21 04:17:52;;;;;;;5.95;3.42;;;;;;;14.88;73.59;96408.72;5029076;28;20433;-60
2022/05/21 04:20:18;;;;;;;3.67;3.28;;;;;;;14.89;73.89;96409.56;5014917;28;20068;-60
2022/05/21 04:22:44;;;;;;;4.57;3.53;;;;;;;14.93;73.42;96405.63;5021902;28;20026;-60
2022/05/21 04:25:10;;;;;;;4.25;3.45;;;;;;;14.98;73.40;96413.13;5021266;28;20032;-61
2022/05/21 04:27:39;;;;;;;3.58;3.28;;;;;;;14.98;74.67;96423.75;5029666;28;20489;-60
2022/05/21 04:30:06;;;;;;;4.75;3.00;;;;;;;14.89;74.88;96415.69;5026335;28;20056;-60
2022/05/21 04:32:32;;;;;;;3.92;3.40;;;;;;;14.90;74.51;96416.53;5025603;28;20029;-61
2022/05/21 04:34:57;;;;;;;5.05;3.58;;;;;;;14.92;74.90;96411.06;5027058;28;20037;-60
2022/05/21 04:37:22;;;;;;;3.30;3.00;;;;;;;14.96;74.48;96420.41;5020155;28;20026;-60
2022/05/21 04:39:48;;;;;;;4.60;3.30;;;;;;;14.92;74.61;96416.38;5024529;28;20032;-60
2022/05/21 04:42:13;;;;;;;3.65;3.30;;;;;;;14.89;74.63;96413.03;5026112;28;20036;-59
2022/05/21 04:44:39;;;;;;;4.72;3.50;;;;;;;14.92;74.09;96413.72;5021215;28;20025;-60
2022/05/21 04:47:05;;;;;;;5.43;3.53;;;;;;;14.88;74.37;96411.38;5026274;28;20026;-60
2022/05/21 04:49:30;;;;;;;6.13;3.10;;;;;;;14.88;75.34;96410.56;5026894;28;20017;-61
2022/05/21 04:51:56;;;;;;;4.38;3.25;;;;;;;14.83;74.48;96411.00;5023648;28;20040;-60
2022/05/21 04:54:21;;;;;;;4.00;3.25;;;;;;;14.86;74.17;96410.69;5015820;28;20238;-60
2022/05/21 04:56:47;;;;;;;4.55;3.03;;;;;;;14.90;73.72;96416.53;5018200;28;20104;-60
2022/05/21 04:59:13;;;;;;;3.83;3.40;;;;;;;14.90;74.35;96409.41;5028512;28;20501;-61
2022/05/21 05:01:39;;;;;;;5.40;3.47;;;;;;;14.86;74.50;96408.03;5023326;28;20029;-61
2022/05/21 05:04:06;;;;;;;7.32;3.58;;;;;;;14.79;76.41;96401.69;5021808;28;20026;-60
2022/05/21 05:06:32;;;;;;;3.38;2.90;;;;;;;14.82;76.00;96406.69;5017903;28;20256;-60
2022/05/21 05:08:58;;;;;;;7.28;3.40;;;;;;;14.85;75.83;96400.25;5030791;28;20092;-60
2022/05/21 05:11:24;;;;;;;3.15;2.88;;;;;;;14.83;76.15;96402.22;5021208;28;20392;-61
2022/05/21 05:13:49;;;;;;;5.78;3.30;;;;;;;14.88;75.79;96397.31;5025620;28;20033;-61
2022/05/21 05:16:15;;;;;;;4.47;3.38;;;;;;;14.98;75.53;96397.22;5022047;28;20504;-61
2022/05/21 05:18:40;;;;;;;6.97;3.53;;;;;;;15.22;75.11;96390.47;5026534;28;20028;-60
2022/05/21 05:21:06;;;;;;;3.90;3.53;;;;;;;15.30;74.59;96396.66;5017332;28;20149;-60
2022/05/21 05:23:31;;;;;;;4.13;3.30;;;;;;;15.39;74.27;96397.56;5024023;28;20022;-60
2022/05/21 05:25:59;;;;;;;3.58;3.25;;;;;;;15.53;74.15;96390.00;5023133;28;20405;-59
2022/05/21 05:28:26;;;;;;;3.95;3.13;;;;;;;15.63;73.49;96395.22;5018686;28;20022;-60
2022/05/21 05:30:53;;;;;;;7.82;3.17;;;;;;;15.69;73.09;96392.78;5024210;28;20405;-60
2022/05/21 05:33:19;;;;;;;3.75;3.35;;;;;;;15.82;72.37;96391.53;5020666;28;20029;-60
2022/05/21 05:35:48;;;;;;;8.68;4.30;;;;;;;15.93;71.90;96398.41;5024040;28;20025;-61
2022/05/21 05:38:15;;;;;;;5.97;3.10;;;;;;;16.13;71.24;96401.66;5024957;28;20022;-60
2022/05/21 05:40:45;;;;;;;5.07;3.85;;;;;;;16.24;70.41;96395.22;5014479;28;20033;-60
2022/05/21 05:43:11;;;;;;;5.68;3.42;;;;;;;16.40;69.21;96399.75;5013030;28;20034;-60
2022/05/21 05:45:36;;;;;;;6.72;2.80;;;;;;;16.63;67.80;96393.84;5020759;28;20037;-61
2022/05/21 05:48:02;;;;;;;3.78;3.40;;;;;;;16.75;67.93;96400.50;5027782;28;20021;-60
2022/05/21 05:50:27;;;;;;;3.40;2.90;;;;;;;16.81;68.00;96394.53;5027868;28;20022;-60
2022/05/21 05:52:53;;;;;;;3.00;2.70;;;;;;;16.96;67.85;96397.38;5017571;28;20038;-60
2022/05/21 05:55:18;;;;;;;3.08;2.88;;;;;;;17.08;67.51;96397.91;5020615;28;20033;-60
2022/05/21 05:57:50;;;;;;;4.38;3.03;;;;;;;17.17;67.16;96394.28;5026173;28;20076;-60
2022/05/21 06:00:15;;;;;;;3.45;3.00;;;;;;;17.37;63.73;96391.28;5020031;28;20045;-61
2022/05/21 06:02:59;;;;;;;2.50;2.30;;;;;;;17.43;62.87;96387.94;5016913;28;20129;-61
2022/05/21 06:05:28;;;;;;;3.17;2.72;;;;;;;17.55;63.24;96387.56;5020460;28;20079;-60
2022/05/21 06:08:00;;;;;;;6.50;3.05;;;;;;;17.74;64.11;96386.38;5016948;28;20029;-60
2022/05/21 06:10:35;;;;;;;3.90;3.15;;;;;;;17.89;64.43;96392.66;5011047;28;20034;-60
2022/05/21 06:13:01;;;;;;;4.38;3.45;;;;;;;18.07;64.11;96388.16;5012586;28;20025;-59
2022/05/21 06:15:27;;;;;;;7.20;3.13;;;;;;;18.36;63.12;96379.53;5014245;28;20799;-60
2022/05/21 06:17:53;;;;;;;5.55;3.25;;;;;;;18.71;62.04;96384.53;5018919;28;20029;-60
2022/05/21 06:20:21;;;;;;;5.07;3.17;;;;;;;19.03;62.03;96385.31;5018673;28;20025;-60
2022/05/21 06:22:47;;;;;;;3.95;2.92;;;;;;;19.42;61.27;96389.69;5020649;28;20052;-60
2022/05/21 06:25:18;;;;;;;7.03;3.03;;;;;;;19.71;60.68;96390.72;5011989;28;20038;-60
2022/05/21 06:27:49;;;;;;;6.72;3.10;;;;;;;19.95;59.13;96393.38;5025385;28;20140;-60
2022/05/21 06:30:19;;;;;;;6.57;3.10;;;;;;;20.23;58.88;96393.53;5022348;28;20010;-60
2022/05/21 06:32:45;;;;;;;4.80;3.10;;;;;;;20.50;57.99;96396.53;5015406;28;20018;-61
2022/05/21 06:35:12;;;;;;;3.13;2.80;;;;;;;20.97;57.17;96397.06;5026960;28;20083;-61
2022/05/21 06:37:37;;;;;;;9.10;2.95;;;;;;;21.42;54.94;96401.38;5014133;28;20049;-60
2022/05/21 06:40:05;;;;;;;5.10;2.80;;;;;;;21.75;53.94;96401.66;5012950;28;20053;-60
2022/05/21 06:42:30;;;;;;;5.57;3.17;;;;;;;22.05;54.11;96392.59;5018991;28;20021;-60
2022/05/21 06:44:56;;;;;;;3.83;2.85;;;;;;;22.42;52.78;96397.72;5015715;28;20018;-60
2022/05/21 06:47:21;;;;;;;5.47;3.08;;;;;;;22.73;50.99;96391.06;5020030;28;20033;-60
2022/05/21 06:49:47;;;;;;;6.13;2.67;;;;;;;23.04;50.54;96387.00;5023462;28;20388;-61
2022/05/21 06:52:12;;;;;;;4.35;2.60;;;;;;;23.34;47.64;96381.28;5022878;28;20458;-61
2022/05/21 06:54:37;;;;;;;5.57;2.63;;;;;;;23.54;47.84;96380.44;5016526;28;20104;-60
2022/05/21 06:57:08;;;;;;;3.45;2.65;;;;;;;23.83;46.23;96370.28;5014906;28;20034;-61
2022/05/21 06:59:34;;;;;;;6.60;3.05;;;;;;;23.96;45.68;96370.25;5021378;28;20133;-60
2022/05/21 07:01:59;;;;;;;4.93;3.20;;;;;;;24.13;45.87;96367.97;5015704;28;20052;-65
2022/05/21 07:10:23;;;;;;;4.65;2.70;;;;;;;24.31;43.75;96363.75;4973686;28;20043;-66
2022/05/21 07:12:49;;;;;;;4.40;2.78;;;;;;;24.60;43.05;96359.69;4977041;28;20038;-64
2022/05/21 07:15:15;;;;;;;3.63;2.42;;;;;;;24.99;42.82;96369.66;4999738;28;20099;-65
2022/05/21 07:17:42;;;;;;;4.40;2.75;;;;;;;24.68;42.51;96364.00;5024110;28;20031;-63
2022/05/21 07:20:11;;;;;;;3.80;2.78;;;;;;;24.92;43.78;96358.91;5021883;28;20030;-66
2022/05/21 07:22:44;;;;;;;3.08;2.28;;;;;;;25.17;41.72;96361.66;5023328;28;20493;-67
2022/05/21 07:25:12;;;;;;;3.40;2.40;;;;;;;25.50;41.33;96361.63;5020167;28;20104;-68
2022/05/21 07:27:39;;;;;;;6.20;2.50;;;;;;;25.77;38.57;96353.31;5023516;28;20030;-68
2022/05/21 07:30:05;;;;;;;8.50;2.53;;;;;;;25.14;42.37;96350.50;5027536;28;20524;-65
2022/05/21 07:32:30;;;;;;;8.13;2.53;;;;;;;25.31;40.12;96348.91;5019451;28;20109;-66
2022/05/21 07:35:01;;;;;;;2.22;2.10;;;;;;;25.82;37.95;96350.78;5022136;28;20116;-67
2022/05/21 07:37:27;;;;;;;4.53;2.88;;;;;;;25.72;39.48;96348.59;5020578;28;20034;-66
2022/05/21 07:39:53;;;;;;;4.10;2.35;;;;;;;25.79;39.09;96351.22;5022634;28;20603;-67
2022/05/21 07:42:18;;;;;;;5.47;2.55;;;;;;;26.38;37.54;96350.78;5015521;28;20075;-66
2022/05/21 07:44:43;;;;;;;2.83;2.05;;;;;;;26.13;37.74;96348.97;5016125;28;20109;-66
2022/05/21 07:47:09;;;;;;;4.18;2.40;;;;;;;26.12;36.19;96347.31;5020584;28;20064;-67
2022/05/21 07:49:34;;;;;;;2.72;2.30;;;;;;;26.70;36.28;96334.41;5029118;28;20066;-67
2022/05/21 07:52:00;;;;;;;3.50;2.58;;;;;;;26.11;37.01;96329.50;5019962;28;20455;-68
2022/05/21 07:54:27;;;;;;;7.03;2.30;;;;;;;26.54;36.30;96336.66;5016361;28;20029;-69
2022/05/21 07:56:53;;;;;;;3.08;2.58;;;;;;;26.78;35.17;96325.16;5020243;28;20223;-69
2022/05/21 07:59:18;;;;;;;2.45;2.22;;;;;;;26.86;36.12;96324.84;5021098;28;20106;-69
2022/05/21 08:01:44;;;;;;;3.90;1.90;;;;;;;27.05;34.14;96325.59;5020885;28;20101;-68
2022/05/21 08:04:09;;;;;;;3.10;2.22;;;;;;;26.94;34.06;96319.09;5028549;28;20021;-69
2022/05/21 08:06:34;;;;;;;4.40;2.60;;;;;;;26.98;35.11;96311.38;5029888;28;20481;-69
2022/05/21 08:09:01;;;;;;;7.53;2.40;;;;;;;27.14;35.76;96308.00;5026384;28;20025;-69
2022/05/21 08:11:27;;;;;;;7.32;2.50;;;;;;;27.04;35.43;96307.72;5018088;28;20493;-69
2022/05/21 08:13:52;;;;;;;18.50;3.05;;;;;;;27.03;35.93;96306.09;5018958;28;20115;-68
2022/05/21 08:16:18;;;;;;;15.10;4.20;;;;;;;27.71;34.97;96303.91;5025609;28;20037;-69
2022/05/21 08:18:43;;;;;;;10.48;3.60;;;;;;;28.05;31.82;96297.06;5023816;28;20025;-70
2022/05/21 08:21:09;;;;;;;10.35;3.40;;;;;;;27.90;33.89;96292.16;5023754;28;20160;-69
2022/05/21 08:29:02;;;;;;;3.08;2.25;;;;;;;28.38;31.36;96279.31;5025300;28;20039;-68
2022/05/21 08:31:28;;;;;;;3.67;2.15;;;;;;;28.83;31.03;96278.53;5027052;28;20104;-68
2022/05/21 08:33:53;;;;;;;4.35;2.15;;;;;;;28.60;31.44;96282.19;5021392;28;20108;-69
2022/05/21 08:36:19;;;;;;;6.85;2.20;;;;;;;28.55;30.60;96285.59;5020078;28;20448;-69
2022/05/21 08:38:45;;;;;;;5.28;2.00;;;;;;;28.32;30.47;96278.41;5029213;28;20018;-69
2022/05/21 08:41:25;;;;;;;4.00;1.92;;;;;;;28.21;31.42;96276.56;5023360;28;20036;-70
2022/05/21 08:43:54;;;;;;;4.65;2.35;;;;;;;28.51;32.07;96272.78;5019589;28;20452;-69
2022/05/21 08:46:58;;;;;;;6.00;2.75;;;;;;;28.48;31.12;96271.41;5023098;28;20033;-69
2022/05/21 08:49:35;;;;;;;3.90;2.13;;;;;;;29.12;29.70;96274.94;5026703;28;20041;-68
2022/05/21 08:52:14;;;;;;;3.55;2.30;;;;;;;29.04;30.75;96270.75;5027195;28;20643;-69
2022/05/21 08:54:43;;;;;;;4.10;2.35;;;;;;;29.10;31.33;96266.25;5017307;28;20034;-68
2022/05/21 08:57:22;;;;;;;2.95;2.28;;;;;;;29.20;32.33;96258.28;5020333;28;20026;-67
2022/05/21 08:59:55;;;;;;;7.93;2.70;;;;;;;29.10;32.77;96258.09;5028227;28;20048;-67
2022/05/21 09:02:32;;;;;;;4.10;2.20;;;;;;;29.34;32.50;96247.91;5024350;28;20025;-67
2022/05/21 09:04:57;;;;;;;4.57;2.10;;;;;;;29.51;31.13;96249.78;5022903;28;20366;-68
2022/05/21 09:07:28;;;;;;;2.28;1.88;;;;;;;29.64;32.20;96246.72;5027324;28;20104;-68
2022/05/21 09:10:06;;;;;;;4.68;2.10;;;;;;;29.51;30.03;96244.38;5029824;28;20041;-68
2022/05/21 09:12:58;;;;;;;3.50;2.33;;;;;;;29.56;31.30;96239.03;5025739;28;20072;-68
2022/05/21 09:18:14;;;;;;;5.60;2.08;;;;;;;30.15;30.89;96240.31;5022528;28;20163;-68
2022/05/21 09:20:57;;;;;;;2.90;2.15;;;;;;;29.88;31.08;96227.50;5014647;28;20501;-68
2022/05/21 09:23:22;;;;;;;4.45;2.03;;;;;;;29.64;31.09;96225.03;5024373;28;20029;-69
2022/05/21 09:26:05;;;;;;;5.68;2.30;;;;;;;29.96;30.90;96229.78;5016930;28;20036;-68
2022/05/21 09:28:31;;;;;;;2.13;2.03;;;;;;;30.61;31.30;96225.56;5022102;28;20104;-69
2022/05/21 09:30:57;;;;;;;3.75;2.13;;;;;;;30.82;30.12;96226.63;5023660;28;20105;-67
2022/05/21 09:33:46;;;;;;;9.65;2.35;;;;;;;31.15;30.08;96217.34;5019544;28;20068;-65
2022/05/21 09:36:18;;;;;;;2.65;2.10;;;;;;;30.72;29.85;96221.91;5014926;28;20033;-68
2022/05/21 09:38:52;;;;;;;4.15;2.50;;;;;;;30.12;29.65;96222.66;5028100;28;20021;-68
2022/05/21 09:41:20;;;;;;;3.35;2.20;;;;;;;30.02;28.42;96225.25;5022593;28;20447;-68
2022/05/21 09:46:41;;;;;;;2.88;2.30;;;;;;;30.41;30.63;96216.16;5019684;28;20040;-69
2022/05/21 09:49:22;;;;;;;4.30;2.90;;;;;;;30.29;30.53;96216.31;5023403;28;20028;-68
2022/05/21 09:51:59;;;;;;;4.55;2.50;;;;;;;30.14;30.29;96214.25;5018112;28;20059;-69
2022/05/21 09:54:41;;;;;;;6.10;2.85;;;;;;;31.23;28.40;96212.53;5020764;28;20091;-67
2022/05/21 09:57:26;;;;;;;3.75;2.53;;;;;;;30.44;29.86;96215.66;5018905;28;20061;-68
2022/05/21 10:00:19;;;;;;;4.63;2.53;;;;;;;30.63;29.72;96213.41;5024681;28;20509;-68
2022/05/21 10:02:47;;;;;;;3.53;2.60;;;;;;;30.75;29.38;96210.53;5017995;28;20033;-68
2022/05/21 10:05:18;;;;;;;5.28;2.60;;;;;;;30.53;30.16;96205.16;5018825;28;20044;-68
2022/05/21 10:10:58;;;;;;;3.80;3.00;;;;;;;30.19;30.76;96195.31;5027768;28;20032;-68
2022/05/21 10:13:39;;;;;;;6.47;3.10;;;;;;;29.88;32.12;96197.66;5013572;28;20413;-67
2022/05/21 10:16:15;;;;;;;9.15;2.95;;;;;;;30.50;30.72;96187.47;5023659;28;20037;-67
2022/05/21 10:19:12;;;;;;;2.63;2.42;;;;;;;31.38;30.38;96188.16;5022847;28;20041;-68
2022/05/21 10:22:10;;;;;;;7.10;2.80;;;;;;;31.40;28.86;96188.72;5012598;28;20085;-67
2022/05/21 10:25:14;;;;;;;3.58;2.53;;;;;;;31.52;29.42;96182.25;5019469;28;20049;-67
2022/05/21 10:28:06;;;;;;;3.58;2.60;;;;;;;31.27;29.25;96178.28;5025132;28;20026;-67
2022/05/21 10:30:55;;;;;;;6.65;2.67;;;;;;;31.18;28.87;96172.53;5020233;28;20401;-65
2022/05/21 10:33:40;;;;;;;7.95;2.40;;;;;;;31.54;28.33;96169.19;5016648;28;20033;-68
2022/05/21 10:36:15;;;;;;;4.10;2.72;;;;;;;31.12;29.89;96171.66;5014279;28;20026;-61
2022/05/21 10:38:58;;;;;;;4.85;2.85;;;;;;;31.15;29.29;96170.31;5023199;28;20033;-63
2022/05/21 10:41:31;;;;;;;4.45;2.70;;;;;;;31.80;27.80;96161.16;5024848;28;20029;-63
2022/05/21 10:44:37;;;;;;;3.88;2.33;;;;;;;31.03;30.08;96162.34;5020063;28;20409;-64
2022/05/21 10:47:09;;;;;;;3.63;2.50;;;;;;;31.87;28.35;96161.72;5022602;28;20032;-64
2022/05/21 10:49:46;;;;;;;5.03;2.53;;;;;;;31.39;28.32;96149.00;5020967;28;20038;-66
2022/05/21 10:52:36;;;;;;;4.72;2.70;;;;;;;31.28;29.75;96153.56;5017469;28;20100;-64
2022/05/21 10:55:01;;;;;;;4.55;2.65;;;;;;;31.49;28.96;96155.56;5019827;28;20045;-63
2022/05/21 10:57:39;;;;;;;4.80;2.50;;;;;;;32.15;27.29;96154.16;5017139;28;20034;-64
2022/05/21 11:00:18;;;;;;;2.70;2.25;;;;;;;31.54;28.51;96156.41;5018854;28;20317;-64
2022/05/21 11:03:03;;;;;;;3.92;2.92;;;;;;;31.90;28.23;96155.75;5021626;28;20080;-65
2022/05/21 11:05:59;;;;;;;4.47;2.75;;;;;;;31.73;28.42;96151.31;5012658;28;20030;-64
2022/05/21 11:08:44;;;;;;;3.38;2.85;;;;;;;31.70;30.45;96148.31;5011937;28;20458;-63
2022/05/21 11:11:27;;;;;;;5.03;2.50;;;;;;;32.46;29.26;96156.13;5012143;28;20026;-64
2022/05/21 11:14:20;;;;;;;3.40;2.30;;;;;;;32.14;30.46;96152.53;5011914;28;20038;-62
2022/05/21 11:17:10;;;;;;;3.72;2.45;;;;;;;32.82;26.53;96154.22;5016271;28;20468;-63
2022/05/21 11:19:51;;;;;;;4.70;2.80;;;;;;;32.40;29.05;96144.44;5017858;28;20497;-62
2022/05/21 11:22:22;;;;;;;3.25;2.35;;;;;;;32.56;27.35;96146.06;5011325;28;20029;-62
2022/05/21 11:25:17;;;;;;;4.22;2.60;;;;;;;32.17;28.69;96138.41;5014168;28;20504;-62
2022/05/21 11:27:58;;;;;;;;;;;;;;;31.65;28.89;96145.56;5012439;28;20052;-66
2022/05/21 11:30:24;;;;;;;10.95;2.95;;;;;;;32.46;27.70;96139.78;5019356;28;20426;-64
2022/05/21 11:38:36;;;;;;;5.70;2.40;;;;;;;31.19;29.21;96135.25;5025196;28;20037;-65
2022/05/21 11:47:07;;;;;;;3.47;2.60;;;;;;;31.57;29.90;96136.03;5019637;28;20125;-64
2022/05/21 11:49:37;;;;;;;3.42;2.53;;;;;;;32.26;29.37;96125.03;5020400;28;20105;-65
2022/05/21 11:52:28;;;;;;;4.88;2.72;;;;;;;32.51;28.09;96132.44;5026124;28;20116;-64
2022/05/21 11:54:53;;;;;;;4.90;2.65;;;;;;;32.96;28.36;96129.16;5019099;28;20042;-64
2022/05/21 11:57:47;;;;;;;6.90;2.40;;;;;;;33.25;27.34;96134.00;5026616;28;20496;-63
2022/05/21 12:00:16;;;;;;;5.55;2.55;;;;;;;32.74;27.85;96130.25;5023536;28;20525;-64
2022/05/21 12:02:53;;;;;;;8.63;2.70;;;;;;;33.22;26.72;96129.94;5016033;28;20050;-64
2022/05/21 12:05:49;;;;;;;7.45;2.95;;;;;;;33.11;26.61;96133.75;5014223;28;20109;-64
2022/05/21 12:08:20;;;;;;;5.38;2.33;;;;;;;32.35;30.12;96115.28;5016537;28;20444;-63
2022/05/21 12:10:56;;;;;;;4.90;2.72;;;;;;;33.41;27.01;96124.69;5017199;28;20080;-64
2022/05/21 12:14:00;;;;;;;5.68;2.78;;;;;;;32.84;28.60;96124.81;5015891;28;20026;-63
2022/05/21 12:16:26;;;;;;;3.08;2.40;;;;;;;33.05;28.22;96122.06;5022871;28;20041;-63
2022/05/21 12:18:59;;;;;;;4.03;2.80;;;;;;;32.99;28.61;96109.53;5025389;28;20539;-63
2022/05/21 12:21:37;;;;;;;3.97;3.00;;;;;;;32.59;28.65;96112.00;5018685;28;20057;-63
2022/05/21 12:24:40;;;;;;;3.30;2.78;;;;;;;32.78;28.59;96111.47;5017625;28;20043;-63
2022/05/21 12:27:15;;;;;;;3.75;2.30;;;;;;;32.30;29.50;96107.91;5025765;28;20169;-63
2022/05/21 12:29:45;;;;;;;5.63;3.00;;;;;;;32.70;28.71;96101.91;5022040;28;20022;-64